Leo Star I — ELXC6 — position and weather

sailwx.info

Track history (hours):
 
Tides and Currents Weather Stations Pressure Air Temp Water Temp Dewpoint Dewpoint Depression Visibility Wind Speed Wind Dir Waves Ship Positions

Leo Star I

Last reported at 2015-Apr-19 17:23 UTC. Time now 2015-Apr-19 17:40 UTC.
Position N 40°11' E 018°38'.

Length 157 m; draft 5.3 m.

Type: Cargo ship. MMSI: 636015065.

Date/timePositionNaut miles runAvg speedWind from/ knotsBaromVisibWave heightAir tempDewpointWater temp
2015-Apr-19 17:23N 40°11' E 018°38'17 8.3
2015-Apr-19 15:18N 39°54' E 018°38'6 8.5
2015-Apr-19 14:33N 39°48' E 018°37'211 9.4
2015-Apr-18 16:08N 36°33' E 016°52'7710.1
2015-Apr-18 08:33N 36°27' E 015°17'10 9.8
2015-Apr-18 07:33N 36°27' E 015°05'1110.4
2015-Apr-18 06:32N 36°26' E 014°51'1010.5
2015-Apr-18 05:33N 36°25' E 014°39'1110.5
2015-Apr-18 04:33N 36°23' E 014°26'1110.6
2015-Apr-18 03:33N 36°20' E 014°13'1010.2
2015-Apr-18 02:33N 36°18' E 014°01'1010.1
2015-Apr-18 01:33N 36°17' E 013°48'1110.7
2015-Apr-18 00:33N 36°17' E 013°35'1110.6
2015-Apr-17 23:33N 36°17' E 013°22'1110.7
2015-Apr-17 22:33N 36°15' E 013°09'7 7.2
2015-Apr-17 21:33N 36°13' E 013°00'8 8.0
2015-Apr-17 20:33N 36°10' E 012°51'5 4.8
2015-Apr-17 19:33N 36°09' E 012°45'1110.6
2015-Apr-17 18:33N 36°06' E 012°33'6 5.9
2015-Apr-17 17:33N 36°06' E 012°26'1110.6
2015-Apr-17 16:33N 36°05' E 012°12'1110.6
2015-Apr-17 15:33N 36°03' E 011°59'1110.9
2015-Apr-17 14:33N 36°01' E 011°46'1010.4
2015-Apr-17 13:33N 35°60' E 011°34'1010.1
2015-Apr-17 12:33N 35°58' E 011°21'1010.3
2015-Apr-17 11:33N 35°55' E 011°09'1110.5
2015-Apr-17 10:33N 35°52' E 010°57'1010.2
2015-Apr-17 09:32N 35°50' E 010°44'4 0.4
2015-Apr-16 22:33N 35°50' E 010°39'0 0.0
2015-Apr-16 20:27N 35°50' E 010°39'0 0.0
2015-Apr-16 19:33N 35°50' E 010°39'0 0.0
2015-Apr-16 18:33N 35°50' E 010°39'0 0.0
2015-Apr-16 17:33N 35°50' E 010°39'0 0.0
2015-Apr-16 16:33N 35°50' E 010°39'0 0.0
2015-Apr-16 15:33N 35°50' E 010°39'0 0.0
2015-Apr-16 14:32N 35°50' E 010°39'0 0.0
2015-Apr-16 13:29N 35°50' E 010°39'0 0.0
2015-Apr-16 12:32N 35°50' E 010°39'0 0.0
2015-Apr-16 11:26N 35°50' E 010°39'0 0.0
2015-Apr-16 10:32N 35°50' E 010°39'0 0.0
2015-Apr-16 09:32N 35°50' E 010°39'0 0.0
2015-Apr-16 08:32N 35°50' E 010°39'0 0.0
2015-Apr-16 07:29N 35°50' E 010°39'0 0.0
2015-Apr-15 17:32N 35°50' E 010°39'0 0.0
2015-Apr-15 16:32N 35°50' E 010°39'0 0.0
2015-Apr-15 15:32N 35°50' E 010°39'0 0.0
2015-Apr-15 14:29N 35°50' E 010°39'0 0.0
2015-Apr-14 18:25N 35°50' E 010°39'0 0.0
2015-Apr-14 17:28N 35°50' E 010°39'0 0.0
2015-Apr-14 16:31N 35°50' E 010°39'0 0.0
2015-Apr-14 15:31N 35°50' E 010°39'0 0.0
2015-Apr-14 14:31N 35°50' E 010°39'0 0.0
2015-Apr-14 08:31N 35°50' E 010°39'0 0.0
2015-Apr-13 21:16N 35°50' E 010°39'0 0.0
2015-Apr-13 19:28N 35°50' E 010°39'0 0.0
2015-Apr-13 15:25N 35°50' E 010°39'0 0.0
2015-Apr-13 14:07N 35°50' E 010°39'0 0.0
2015-Apr-13 13:19N 35°50' E 010°39'0 0.0
2015-Apr-13 12:33N 35°50' E 010°39'0 0.0
2015-Apr-13 11:33N 35°50' E 010°39'0 0.0
2015-Apr-13 10:33N 35°50' E 010°39'0 0.0
2015-Apr-13 09:03N 35°50' E 010°39'0 0.0
2015-Apr-13 04:33N 35°50' E 010°39'0 0.0
2015-Apr-13 03:33N 35°50' E 010°39'0 0.0
2015-Apr-12 19:06N 35°50' E 010°39'0 0.0
2015-Apr-12 17:27N 35°50' E 010°39'0 0.0
2015-Apr-12 16:27N 35°50' E 010°39'  
Track history (hours):
 
Tides and Currents Weather Stations Pressure Air Temp Water Temp Dewpoint Dewpoint Depression Visibility Wind Speed Wind Dir Waves Ship Positions

Leo Star I

Last reported at 2015-Apr-19 17:23 UTC. Time now 2015-Apr-19 17:40 UTC.
Position N 40°11' E 018°38'.

Length 157 m; draft 5.3 m.

Type: Cargo ship. MMSI: 636015065.

Date/timePositionNaut miles runAvg speedWind from/ knotsBaromVisibWave heightAir tempDewpointWater temp
2015-Apr-19 17:23N 40°11' E 018°38'17 8.3
2015-Apr-19 15:18N 39°54' E 018°38'6 8.5
2015-Apr-19 14:33N 39°48' E 018°37'211 9.4
2015-Apr-18 16:08N 36°33' E 016°52'7710.1
2015-Apr-18 08:33N 36°27' E 015°17'10 9.8
2015-Apr-18 07:33N 36°27' E 015°05'1110.4
2015-Apr-18 06:32N 36°26' E 014°51'1010.5
2015-Apr-18 05:33N 36°25' E 014°39'1110.5
2015-Apr-18 04:33N 36°23' E 014°26'1110.6
2015-Apr-18 03:33N 36°20' E 014°13'1010.2
2015-Apr-18 02:33N 36°18' E 014°01'1010.1
2015-Apr-18 01:33N 36°17' E 013°48'1110.7
2015-Apr-18 00:33N 36°17' E 013°35'1110.6
2015-Apr-17 23:33N 36°17' E 013°22'1110.7
2015-Apr-17 22:33N 36°15' E 013°09'7 7.2
2015-Apr-17 21:33N 36°13' E 013°00'8 8.0
2015-Apr-17 20:33N 36°10' E 012°51'5 4.8
2015-Apr-17 19:33N 36°09' E 012°45'1110.6
2015-Apr-17 18:33N 36°06' E 012°33'6 5.9
2015-Apr-17 17:33N 36°06' E 012°26'1110.6
2015-Apr-17 16:33N 36°05' E 012°12'1110.6
2015-Apr-17 15:33N 36°03' E 011°59'1110.9
2015-Apr-17 14:33N 36°01' E 011°46'1010.4
2015-Apr-17 13:33N 35°60' E 011°34'1010.1
2015-Apr-17 12:33N 35°58' E 011°21'1010.3
2015-Apr-17 11:33N 35°55' E 011°09'1110.5
2015-Apr-17 10:33N 35°52' E 010°57'1010.2
2015-Apr-17 09:32N 35°50' E 010°44'4 0.4
2015-Apr-16 22:33N 35°50' E 010°39'0 0.0
2015-Apr-16 20:27N 35°50' E 010°39'0 0.0
2015-Apr-16 19:33N 35°50' E 010°39'0 0.0
2015-Apr-16 18:33N 35°50' E 010°39'0 0.0
2015-Apr-16 17:33N 35°50' E 010°39'0 0.0
2015-Apr-16 16:33N 35°50' E 010°39'0 0.0
2015-Apr-16 15:33N 35°50' E 010°39'0 0.0
2015-Apr-16 14:32N 35°50' E 010°39'0 0.0
2015-Apr-16 13:29N 35°50' E 010°39'0 0.0
2015-Apr-16 12:32N 35°50' E 010°39'0 0.0
2015-Apr-16 11:26N 35°50' E 010°39'0 0.0
2015-Apr-16 10:32N 35°50' E 010°39'0 0.0
2015-Apr-16 09:32N 35°50' E 010°39'0 0.0
2015-Apr-16 08:32N 35°50' E 010°39'0 0.0
2015-Apr-16 07:29N 35°50' E 010°39'0 0.0
2015-Apr-15 17:32N 35°50' E 010°39'0 0.0
2015-Apr-15 16:32N 35°50' E 010°39'0 0.0
2015-Apr-15 15:32N 35°50' E 010°39'0 0.0
2015-Apr-15 14:29N 35°50' E 010°39'0 0.0
2015-Apr-14 18:25N 35°50' E 010°39'0 0.0
2015-Apr-14 17:28N 35°50' E 010°39'0 0.0
2015-Apr-14 16:31N 35°50' E 010°39'0 0.0
2015-Apr-14 15:31N 35°50' E 010°39'0 0.0
2015-Apr-14 14:31N 35°50' E 010°39'0 0.0
2015-Apr-14 08:31N 35°50' E 010°39'0 0.0
2015-Apr-13 21:16N 35°50' E 010°39'0 0.0
2015-Apr-13 19:28N 35°50' E 010°39'0 0.0
2015-Apr-13 15:25N 35°50' E 010°39'0 0.0
2015-Apr-13 14:07N 35°50' E 010°39'0 0.0
2015-Apr-13 13:19N 35°50' E 010°39'0 0.0
2015-Apr-13 12:33N 35°50' E 010°39'0 0.0
2015-Apr-13 11:33N 35°50' E 010°39'0 0.0
2015-Apr-13 10:33N 35°50' E 010°39'0 0.0
2015-Apr-13 09:03N 35°50' E 010°39'0 0.0
2015-Apr-13 04:33N 35°50' E 010°39'0 0.0
2015-Apr-13 03:33N 35°50' E 010°39'0 0.0
2015-Apr-12 19:06N 35°50' E 010°39'0 0.0
2015-Apr-12 17:27N 35°50' E 010°39'0 0.0
2015-Apr-12 16:27N 35°50' E 010°39'  

Dump ship's entire track history